Detalii statie UNIC PROD [00001D09]

Toti senzorii

Date Temperatura solului [C]Precipitatii [mm]Voltaj baterie [mV]Leaf Wetness [Min]HC Air temperature [C]HC Relative humidity [%]Punctul de roua [C]
medieminmaxsumaultimatimpmedieminmaxmediemediemin
2020-01-25 15:00:00 0 7246 11.12 9.92 12.19 39.22 -2.2 -2.6
2020-01-25 16:00:00 0 7236 9.95 7.98 11.77 42.56 -2.3 -2.6
2020-01-25 17:00:00 0 7000 8.14 6.42 8.89 49.46 -1.8 -2.2
2020-01-25 18:00:00 0 6932 4.95 3.53 6.38 58.4 -2.6 -3.2
2020-01-25 19:00:00 0 6922 2.73 1.75 4.71 66.18 -2.9 -3.5
2020-01-25 20:00:00 0 6914 2.04 1.49 2.81 69.71 -2.9 -3.5
2020-01-25 21:00:00 0 6894 1.69 0.07 2.7 70.98 -3 -4.1
2020-01-25 22:00:00 0 6884 -0.77 -2.58 0.58 80.16 -3.7 -5.2
2020-01-25 23:00:00 0 6874 -0.22 -1.12 1.4 81.59 -2.9 -3.7
2020-01-26 00:00:00 0 6864 -1.15 -2.71 1.11 81.93 -3.8 -5.2
2020-01-26 01:00:00 0 6854 -1.04 -1.69 0.04 84.77 -3.1 -4.1
2020-01-26 02:00:00 0 6844 -2.45 -3.8 -1.59 92.94 -3.3 -4.6
2020-01-26 03:00:00 0 6834 -2.96 -3.89 -1.92 99.7 -2.8 -3.8
2020-01-26 04:00:00 0 6834 -2.49 -3.26 -1.45 100 -2.3 -3.1
2020-01-26 05:00:00 0 6844 -2.99 -3.85 -1.24 99.3 -2.9 -4
2020-01-26 06:00:00 0 6826 -3.27 -3.88 -2.89 95.91 -3.7 -4.6
2020-01-26 07:00:00 0 6826 -3.72 -4.57 -2.94 98.18 -3.8 -5.2
2020-01-26 08:00:00 0 6844 -4.56 -5.72 -3.36 99.65 -4.4 -5.7
2020-01-26 09:00:00 0 7264 -3.35 -5.59 -0.66 99.82 -3.2 -5.5
2020-01-26 10:00:00 0 7254 2.29 -0.45 3.95 87.34 0.2 -0.7
2020-01-26 11:00:00 0 7254 5.66 4.18 6.99 64.96 -0.4 -0.8
2020-01-26 12:00:00 0 7246 7.61 6.75 8.51 54.98 -0.9 -1.5
2020-01-26 13:00:00 0 7246 8.78 8.22 9.3 50.54 -1 -1.4
2020-01-26 14:00:00 0 7246 10.17 9.65 10.65 45.74 -1 -1.6
2020-01-26 15:00:00 0 7246 10.9 10.52 11.26 43.15 -1.1 -1.8
2020-01-26 16:00:00 0 7216 10.94 10.46 11.46 42.08 -1.4 -1.9
2020-01-26 17:00:00 0 7020 8.73 7.15 10.34 50.13 -1.2 -1.5
2020-01-26 18:00:00 0 6932 4.78 3.11 6.9 60.59 -2.2 -3
2020-01-26 19:00:00 0 6914 1.49 0.43 2.82 72.06 -3 -3.7
2020-01-26 20:00:00 0 6904 -0.23 -0.71 0.44 84.66 -2.4 -3.4
2020-01-26 21:00:00 0 6884 -0.45 -1.29 -0.04 91.26 -1.6 -2.8
2020-01-26 22:00:00 0 6864 -1.69 -2.29 -0.74 90.24 -3 -3.7
2020-01-26 23:00:00 0 6864 -1.47 -2.08 -1.19 91.03 -2.6 -3
2020-01-27 00:00:00 0 6854 -1.16 -1.48 -0.77 89.76 -2.5 -2.8
2020-01-27 01:00:00 0 6844 -1.61 -1.85 -1.27 91.28 -2.7 -3
2020-01-27 02:00:00 0 6844 -2.12 -2.69 -1.7 91.62 -3.2 -3.5
2020-01-27 03:00:00 0 6834 -2.88 -3.37 -2.53 95.81 -3.3 -3.8
2020-01-27 04:00:00 0 6826 -3.25 -3.73 -2.83 97.42 -3.4 -4
2020-01-27 05:00:00 0 6834 -4.17 -4.82 -3.38 99.87 -4 -4.7
2020-01-27 06:00:00 0 6826 -4.64 -5.13 -3.71 100 -4.5 -5
2020-01-27 07:00:00 0 6826 -5.78 -6.25 -5.23 100 -5.6 -6.1
2020-01-27 08:00:00 0 6826 -5.68 -6.81 -5.17 100 -5.5 -6.7
2020-01-27 09:00:00 0 7226 -4.36 -5.39 -2.38 100 -4.2 -5.2
2020-01-27 10:00:00 0 7264 -1.02 -2.09 0.24 99.98 -0.9 -1.9
2020-01-27 11:00:00 0 7254 2 0.81 3.64 89.57 0.3 0
2020-01-27 12:00:00 0 7246 5.36 4.11 6.55 74.73 1 0.5
2020-01-27 13:00:00 0.2 7254 7.53 6.64 8.44 69.01 2 1.7
2020-01-27 14:00:00 0 7246 8.86 8.08 9.67 65.25 2.5 1.9